Weather at Boundary Bay Airport

Public forecast

Using degrees Celsius for public forecast. Weather courtesy of forecast.io.

Closest aviation weather report (METAR) to Boundary Bay Airport

Closest report is Vancouver International Airport, 9.9 nm (18.3 km) NW. Retrieved 2021/06/15 18:00 UTC (24 minutes ago):

CYVR 151800Z 10007KT 080V140 20SM FEW025 FEW035 FEW070 SCT090 SCT120 17/12 A3011 RMK CU1SC1AC1AC3AC1 CU TR SC TR AC TR AC TR TCU TOPS E SW SW W NW SLP199 DENSITY ALT 100FT

Closest aviation forecast (TAF) to Boundary Bay Airport

Closest forecast is Vancouver International Airport, 9.9 nm (18.3 km) NW. Retrieved 2021/06/15 18:40 UTC (0 seconds ago):

TAF CYVR 151738Z 1518/1624 10010KT P6SM FEW025 BKN060 TEMPO 1518/1521 P6SM -SHRA SCT020 BKN040 FM152100 20008KT P6SM FEW015 SCT030 BKN060 TEMPO 1521/1608 P6SM -SHRA VCTS SCT015 BKN030CB OVC060 FM160800 VRB03KT P6SM SCT020 BKN040 PROB30 1610/1616 2SM BR FM161800 17008KT P6SM SCT040 BECMG 1619/1621 24008KT RMK NXT FCST BY 152100Z